Lakefield, Canada
Current Conditions -  °F | °C
As of 4:00 AM on Monday 20 Oct 2014 (Local Time) from CYPQ Reporting Station
Overcast Overcast  
Wind Chill:   Ceiling: 8900
Heat Index:   Visibility: 9mi
Dew Point:   Wind: 2mph
Humidity: 100%   Direction: 270°W
Pressure: 29.96"   Gusts: NA
Location:  44.43°N, 78.27°W
Report Text: CYPQ 200800Z AUTO 27002KT 9SM FEW075 OVC089 01/01 A2996 RMK SLP151
Loading
Personal Weather Stations






























Interactive Weather Map
Tropical Storm Tracking
New forecast layout! Learn more

10-Day Weather Forecast

Advertisements
Track Severe Weather on mobile